createdAt,value
2019-01-11T00:00:53.773Z,9.40
2019-01-11T00:01:53.783Z,7.70
2019-01-11T00:02:53.562Z,7.80
2019-01-11T00:03:53.456Z,8.30
2019-01-11T00:04:53.370Z,8.60
2019-01-11T00:05:53.244Z,9.10
2019-01-11T00:06:53.136Z,7.00
2019-01-11T00:07:53.030Z,8.10
2019-01-11T00:08:53.032Z,7.90
2019-01-11T00:09:52.841Z,7.50
2019-01-11T00:10:52.717Z,8.40
2019-01-11T00:11:52.611Z,8.80
2019-01-11T00:12:52.509Z,8.40
2019-01-11T00:13:52.400Z,8.10
2019-01-11T00:14:52.309Z,8.30
2019-01-11T00:15:52.290Z,8.80
2019-01-11T00:16:52.084Z,8.50
2019-01-11T00:17:52.331Z,7.30
2019-01-11T00:18:51.885Z,6.40
2019-01-11T00:19:51.780Z,6.90
2019-01-11T00:20:51.661Z,6.40
2019-01-11T00:21:51.549Z,6.90
2019-01-11T00:22:51.542Z,6.80
2019-01-11T00:23:51.342Z,8.20
2019-01-11T00:24:51.248Z,10.80
2019-01-11T00:25:51.130Z,10.80
2019-01-11T00:26:51.022Z,9.40
2019-01-11T00:27:50.933Z,8.60
2019-01-11T00:28:50.809Z,8.30
2019-01-11T00:29:50.821Z,9.90
2019-01-11T00:30:50.597Z,9.80
2019-01-11T00:31:50.490Z,11.20
2019-01-11T00:32:50.385Z,9.80
2019-01-11T00:33:50.276Z,8.30
2019-01-11T00:34:50.173Z,6.40
2019-01-11T00:35:50.083Z,6.00
2019-01-11T00:36:50.079Z,6.60
2019-01-11T00:37:49.856Z,7.00
2019-01-11T00:38:49.744Z,7.50
2019-01-11T00:39:49.640Z,8.30
2019-01-11T00:40:49.552Z,8.40
2019-01-11T00:41:49.425Z,8.60
2019-01-11T00:42:49.320Z,9.20
2019-01-11T00:43:49.321Z,10.20
2019-01-11T00:44:49.107Z,8.00
2019-01-11T00:45:49.045Z,8.40
2019-01-11T00:46:48.896Z,9.80
2019-01-11T00:47:48.785Z,11.70
2019-01-11T00:48:48.683Z,12.70
2019-01-11T00:49:48.577Z,11.80
2019-01-11T00:50:48.588Z,11.80
2019-01-11T00:51:48.369Z,11.60
2019-01-11T00:52:48.256Z,9.40
2019-01-11T00:53:48.149Z,7.80
2019-01-11T00:54:48.043Z,7.70
2019-01-11T00:55:47.950Z,8.10
2019-01-11T00:56:47.943Z,7.40
2019-01-11T00:57:47.726Z,6.10
2019-01-11T00:58:47.613Z,5.70
2019-01-11T00:59:47.511Z,5.80
2019-01-11T01:00:47.414Z,5.90
2019-01-11T01:01:47.295Z,6.10
2019-01-11T01:02:47.189Z,6.80
2019-01-11T01:03:47.077Z,6.90
2019-01-11T01:04:46.972Z,6.30
2019-01-11T01:05:46.885Z,6.50
2019-01-11T01:06:46.761Z,6.00
2019-01-11T01:07:46.655Z,6.60
2019-01-11T01:08:46.544Z,7.10
2019-01-11T01:09:46.440Z,7.40
2019-01-11T01:10:46.355Z,6.80
2019-01-11T01:11:46.226Z,7.30
2019-01-11T01:12:46.122Z,8.70
2019-01-11T01:13:46.018Z,8.10
2019-01-11T01:14:45.900Z,7.50
2019-01-11T01:15:45.815Z,7.60
2019-01-11T01:16:45.693Z,7.10
2019-01-11T01:17:45.590Z,7.10
2019-01-11T01:18:45.475Z,7.20
2019-01-11T01:19:45.372Z,7.10
2019-01-11T01:20:45.282Z,7.30
2019-01-11T01:21:45.159Z,6.80
2019-01-11T01:22:45.063Z,7.00
2019-01-11T01:23:44.945Z,7.10
2019-01-11T01:24:44.836Z,7.30
2019-01-11T01:25:44.745Z,6.90
2019-01-11T01:26:44.853Z,7.20
2019-01-11T01:27:44.516Z,7.50
2019-01-11T01:28:44.408Z,6.30
2019-01-11T01:29:44.301Z,6.60
2019-01-11T01:30:44.212Z,6.20
2019-01-11T01:31:44.087Z,6.70
2019-01-11T01:32:43.981Z,7.00
2019-01-11T01:33:43.873Z,7.30
2019-01-11T01:34:43.766Z,7.40
2019-01-11T01:35:43.678Z,7.30
2019-01-11T01:36:43.555Z,6.50
2019-01-11T01:37:43.448Z,5.30
2019-01-11T01:38:43.342Z,5.70
2019-01-11T01:39:43.235Z,6.60
2019-01-11T01:40:43.141Z,6.70
2019-01-11T01:41:43.022Z,6.90
2019-01-11T01:42:42.915Z,7.70
2019-01-11T01:43:42.813Z,6.70
2019-01-11T01:44:42.701Z,5.80
2019-01-11T01:45:42.610Z,6.30
2019-01-11T01:46:42.491Z,6.20
2019-01-11T01:47:42.382Z,6.20
2019-01-11T01:48:42.271Z,6.70
2019-01-11T01:49:42.170Z,6.10
2019-01-11T01:50:42.074Z,6.40
2019-01-11T01:51:41.955Z,7.40
2019-01-11T01:52:41.850Z,6.50
2019-01-11T01:53:41.741Z,7.20
2019-01-11T01:54:41.635Z,6.80
2019-01-11T01:55:41.543Z,6.40
2019-01-11T01:56:41.418Z,6.00
2019-01-11T01:57:41.312Z,6.50
2019-01-11T01:58:41.220Z,5.80
2019-01-11T01:59:41.100Z,5.80
2019-01-11T02:00:41.013Z,5.50
2019-01-11T02:01:40.892Z,5.60
2019-01-11T02:02:40.785Z,5.90
2019-01-11T02:03:40.680Z,6.20
2019-01-11T02:04:40.570Z,6.50
2019-01-11T02:05:40.481Z,6.90
2019-01-11T02:06:40.353Z,6.20
2019-01-11T02:07:40.248Z,6.60
2019-01-11T02:08:40.142Z,7.20
2019-01-11T02:09:40.035Z,7.30
2019-01-11T02:10:39.948Z,6.50
2019-01-11T02:11:39.823Z,7.90
2019-01-11T02:12:39.718Z,7.30
2019-01-11T02:13:39.607Z,6.40
2019-01-11T02:14:39.506Z,6.80
2019-01-11T02:15:39.398Z,7.70
2019-01-11T02:16:39.318Z,6.10
2019-01-11T02:17:39.181Z,6.50
2019-01-11T02:18:39.077Z,6.30
2019-01-11T02:19:38.969Z,7.20
2019-01-11T02:20:38.971Z,6.50
2019-01-11T02:21:38.772Z,7.10
2019-01-11T02:22:38.653Z,6.20
2019-01-11T02:23:38.543Z,5.20
2019-01-11T02:24:38.435Z,5.50
2019-01-11T02:25:38.334Z,5.00
2019-01-11T02:26:38.240Z,5.90
2019-01-11T02:27:38.224Z,5.90
2019-01-11T02:28:38.012Z,5.90
2019-01-11T02:29:37.908Z,5.70
2019-01-11T02:30:37.802Z,6.70
2019-01-11T02:31:37.708Z,6.40
2019-01-11T02:32:37.586Z,6.90
2019-01-11T02:33:37.478Z,6.70
2019-01-11T02:34:37.487Z,6.90
2019-01-11T02:35:37.270Z,6.40
2019-01-11T02:36:37.173Z,5.70
2019-01-11T02:37:37.056Z,5.60
2019-01-11T02:38:36.945Z,7.20
2019-01-11T02:39:36.843Z,7.20
2019-01-11T02:40:36.732Z,7.10
2019-01-11T02:41:36.751Z,7.20
2019-01-11T02:42:36.523Z,5.10
2019-01-11T02:43:36.418Z,5.10
2019-01-11T02:44:36.310Z,5.80
2019-01-11T02:45:36.205Z,6.00
2019-01-11T02:46:36.110Z,5.40
2019-01-11T02:47:35.987Z,5.90
2019-01-11T02:48:35.988Z,6.20
2019-01-11T02:49:40.097Z,5.70
2019-01-11T02:50:35.671Z,6.60
2019-01-11T02:51:35.580Z,7.10
2019-01-11T02:52:35.454Z,7.60
2019-01-11T02:53:35.350Z,8.10
2019-01-11T02:54:35.247Z,6.90
2019-01-11T02:55:35.340Z,6.40
2019-01-11T02:56:35.048Z,6.30
2019-01-11T02:57:34.926Z,7.00
2019-01-11T02:58:34.822Z,6.20
2019-01-11T02:59:34.710Z,5.70
2019-01-11T03:00:34.607Z,6.50
2019-01-11T03:01:34.517Z,6.20
2019-01-11T03:02:34.393Z,7.00
2019-01-11T03:03:34.289Z,6.30
2019-01-11T03:04:34.181Z,5.80
2019-01-11T03:05:34.075Z,5.70
2019-01-11T03:06:33.989Z,5.40
2019-01-11T03:07:33.864Z,6.10
2019-01-11T03:08:33.762Z,5.90
2019-01-11T03:09:33.652Z,5.70
2019-01-11T03:10:33.545Z,5.40
2019-01-11T03:11:33.456Z,5.70
2019-01-11T03:12:33.328Z,5.90
2019-01-11T03:13:33.224Z,5.50
2019-01-11T03:14:33.120Z,6.10
2019-01-11T03:15:33.008Z,6.60
2019-01-11T03:16:32.924Z,6.80
2019-01-11T03:17:32.921Z,6.90
2019-01-11T03:18:32.692Z,6.20
2019-01-11T03:19:32.588Z,6.70
2019-01-11T03:20:32.485Z,7.00
2019-01-11T03:21:32.390Z,6.40
2019-01-11T03:22:32.269Z,6.10
2019-01-11T03:23:32.340Z,6.70
2019-01-11T03:24:32.155Z,5.90
2019-01-11T03:25:31.950Z,6.50
2019-01-11T03:26:31.857Z,5.70
2019-01-11T03:27:31.734Z,5.50
2019-01-11T03:28:31.633Z,5.90
2019-01-11T03:29:31.528Z,5.70
2019-01-11T03:30:31.425Z,5.70
2019-01-11T03:31:31.450Z,6.30
2019-01-11T03:32:31.217Z,6.50
2019-01-11T03:33:31.100Z,5.90
2019-01-11T03:34:30.990Z,5.40
2019-01-11T03:35:30.902Z,6.10
2019-01-11T03:36:30.797Z,6.90
2019-01-11T03:37:30.672Z,5.90
2019-01-11T03:38:30.674Z,6.00
2019-01-11T03:39:30.460Z,5.30
2019-01-11T03:40:30.358Z,5.30
2019-01-11T03:41:30.271Z,5.60
2019-01-11T03:42:30.144Z,6.30
2019-01-11T03:43:30.036Z,5.90
2019-01-11T03:44:29.951Z,5.40
2019-01-11T03:45:30.125Z,4.70
2019-01-11T03:46:29.733Z,4.90
2019-01-11T03:47:29.616Z,5.10
2019-01-11T03:48:29.511Z,5.20
2019-01-11T03:49:29.406Z,5.70
2019-01-11T03:50:29.296Z,5.60
2019-01-11T03:51:29.204Z,5.20
2019-01-11T03:52:29.183Z,4.60
2019-01-11T03:53:28.978Z,5.10
2019-01-11T03:54:28.869Z,5.50
2019-01-11T03:55:28.765Z,5.70
2019-01-11T03:56:28.689Z,4.90
2019-01-11T03:57:28.551Z,5.30
2019-01-11T03:58:28.449Z,4.80
2019-01-11T03:59:28.337Z,5.10
2019-01-11T04:00:28.233Z,5.00
2019-01-11T04:01:28.129Z,4.90
2019-01-11T04:02:28.040Z,4.80
2019-01-11T04:03:27.913Z,5.30
2019-01-11T04:04:27.811Z,4.10
2019-01-11T04:05:27.703Z,3.90
2019-01-11T04:06:27.604Z,4.00
2019-01-11T04:07:27.506Z,4.00
2019-01-11T04:08:27.384Z,4.90
2019-01-11T04:09:27.283Z,5.20
2019-01-11T04:10:27.173Z,4.50
2019-01-11T04:11:27.093Z,4.30
2019-01-11T04:12:26.976Z,4.90
2019-01-11T04:13:30.502Z,4.70
2019-01-11T04:14:26.749Z,4.30
2019-01-11T04:15:26.641Z,4.00
2019-01-11T04:16:26.540Z,4.00
2019-01-11T04:17:26.448Z,4.40
2019-01-11T04:18:26.328Z,5.10
2019-01-11T04:19:26.220Z,5.30
2019-01-11T04:20:26.115Z,4.90
2019-01-11T04:21:26.012Z,4.90
2019-01-11T04:22:25.914Z,4.20
2019-01-11T04:23:25.792Z,4.80
2019-01-11T04:24:25.686Z,4.40
2019-01-11T04:25:25.584Z,4.00
2019-01-11T04:26:25.477Z,4.30
2019-01-11T04:27:25.392Z,4.40
2019-01-11T04:28:25.273Z,4.60
2019-01-11T04:29:25.158Z,4.80
2019-01-11T04:30:25.055Z,4.20
2019-01-11T04:31:24.951Z,4.70
2019-01-11T04:32:24.858Z,5.00
2019-01-11T04:33:24.737Z,4.70
2019-01-11T04:34:24.634Z,5.10
2019-01-11T04:35:24.521Z,4.60
2019-01-11T04:36:24.415Z,4.50
2019-01-11T04:37:24.331Z,4.30
2019-01-11T04:38:24.204Z,4.70
2019-01-11T04:39:24.100Z,4.50
2019-01-11T04:40:23.996Z,4.60
2019-01-11T04:41:23.892Z,4.40
2019-01-11T04:42:23.796Z,4.50
2019-01-11T04:43:23.683Z,4.30
2019-01-11T04:44:23.568Z,4.20
2019-01-11T04:45:23.465Z,4.10
2019-01-11T04:46:23.359Z,4.40
2019-01-11T04:47:23.270Z,4.20
2019-01-11T04:48:23.145Z,4.10
2019-01-11T04:49:23.046Z,4.00
2019-01-11T04:50:22.936Z,4.50
2019-01-11T04:51:22.827Z,4.30
2019-01-11T04:52:22.740Z,3.60
2019-01-11T04:53:22.617Z,3.90
2019-01-11T04:54:22.513Z,4.40
2019-01-11T04:55:22.416Z,3.70
2019-01-11T04:56:22.298Z,4.00
2019-01-11T04:57:22.210Z,4.20
2019-01-11T04:58:22.090Z,4.20
2019-01-11T04:59:21.991Z,4.50
2019-01-11T05:00:21.878Z,4.40
2019-01-11T05:01:21.775Z,4.00
2019-01-11T05:02:21.685Z,3.80
2019-01-11T05:03:21.564Z,4.10
2019-01-11T05:04:21.516Z,4.30
2019-01-11T05:05:21.347Z,4.80
2019-01-11T05:06:21.243Z,4.40
2019-01-11T05:07:21.151Z,5.20
2019-01-11T05:08:21.131Z,4.20
2019-01-11T05:09:20.930Z,5.20
2019-01-11T05:10:20.822Z,4.30
2019-01-11T05:11:20.723Z,4.90
2019-01-11T05:12:20.626Z,4.60
2019-01-11T05:13:20.505Z,5.00
2019-01-11T05:14:20.395Z,4.60
2019-01-11T05:15:20.297Z,4.10
2019-01-11T05:16:20.189Z,5.20
2019-01-11T05:17:20.099Z,5.50
2019-01-11T05:18:19.977Z,4.80
2019-01-11T05:19:19.872Z,6.20
2019-01-11T05:20:19.766Z,7.30
2019-01-11T05:21:19.657Z,6.00
2019-01-11T05:22:19.673Z,6.80
2019-01-11T05:23:19.445Z,7.10
2019-01-11T05:24:19.339Z,7.20
2019-01-11T05:25:19.237Z,6.80
2019-01-11T05:26:19.129Z,8.30
2019-01-11T05:27:19.038Z,7.80
2019-01-11T05:28:18.920Z,7.60
2019-01-11T05:29:18.920Z,9.20
2019-01-11T05:30:18.710Z,7.20
2019-01-11T05:31:18.605Z,8.20
2019-01-11T05:32:18.511Z,6.40
2019-01-11T05:33:18.393Z,6.60
2019-01-11T05:34:18.288Z,7.00
2019-01-11T05:35:18.180Z,6.80
2019-01-11T05:36:18.175Z,6.50
2019-01-11T05:37:17.989Z,6.90
2019-01-11T05:38:17.862Z,7.50
2019-01-11T05:39:17.760Z,7.00
2019-01-11T05:40:17.659Z,7.30
2019-01-11T05:41:17.548Z,6.90
2019-01-11T05:42:17.459Z,8.70
2019-01-11T05:43:17.442Z,6.90
2019-01-11T05:44:17.232Z,7.00
2019-01-11T05:45:17.126Z,6.50
2019-01-11T05:46:17.018Z,7.80
2019-01-11T05:47:16.917Z,7.10
2019-01-11T05:48:16.826Z,6.00
2019-01-11T05:49:16.706Z,7.40
2019-01-11T05:50:23.411Z,7.40
2019-01-11T05:51:16.494Z,7.10
2019-01-11T05:52:16.386Z,7.40
2019-01-11T05:53:16.304Z,7.80
2019-01-11T05:54:16.176Z,7.10
2019-01-11T05:55:16.072Z,8.30
2019-01-11T05:56:15.966Z,7.80
2019-01-11T05:57:15.969Z,7.80
2019-01-11T05:58:15.773Z,7.20
2019-01-11T05:59:15.649Z,7.00
2019-01-11T06:00:15.547Z,6.70
2019-01-11T06:01:15.438Z,7.20
2019-01-11T06:02:15.335Z,6.80
2019-01-11T06:03:15.244Z,7.00
2019-01-11T06:04:15.228Z,7.40
2019-01-11T06:05:15.019Z,8.20
2019-01-11T06:06:14.913Z,7.70
2019-01-11T06:07:14.812Z,7.90
2019-01-11T06:08:14.718Z,9.40
2019-01-11T06:09:14.606Z,8.20
2019-01-11T06:10:14.493Z,8.30
2019-01-11T06:11:14.490Z,6.70
2019-01-11T06:12:14.280Z,7.00
2019-01-11T06:13:14.188Z,8.50
2019-01-11T06:14:14.069Z,12.40
2019-01-11T06:15:13.963Z,13.10
2019-01-11T06:16:13.859Z,13.40
2019-01-11T06:17:13.757Z,12.70
2019-01-11T06:18:13.673Z,10.60
2019-01-11T06:19:13.540Z,12.00
2019-01-11T06:20:13.445Z,12.40
2019-01-11T06:21:13.329Z,12.50
2019-01-11T06:22:13.227Z,13.30
2019-01-11T06:23:13.136Z,12.00
2019-01-11T06:24:13.016Z,11.70
2019-01-11T06:25:13.010Z,9.60
2019-01-11T06:26:12.806Z,10.90
2019-01-11T06:27:12.700Z,9.90
2019-01-11T06:28:12.613Z,9.80
2019-01-11T06:29:12.488Z,11.00
2019-01-11T06:30:12.385Z,12.20
2019-01-11T06:31:12.408Z,9.60
2019-01-11T06:32:12.174Z,10.90
2019-01-11T06:33:12.094Z,10.40
2019-01-11T06:34:11.963Z,10.80
2019-01-11T06:35:11.854Z,10.70
2019-01-11T06:36:11.771Z,10.10
2019-01-11T06:37:11.650Z,11.50
2019-01-11T06:38:11.553Z,14.60
2019-01-11T06:39:11.434Z,13.80
2019-01-11T06:40:11.329Z,13.10
2019-01-11T06:41:11.227Z,14.30
2019-01-11T06:42:11.120Z,14.20
2019-01-11T06:43:11.028Z,17.70
2019-01-11T06:44:10.906Z,13.50
2019-01-11T06:45:10.804Z,12.10
2019-01-11T06:46:10.696Z,12.90
2019-01-11T06:47:10.591Z,12.00
2019-01-11T06:48:10.507Z,12.40
2019-01-11T06:49:10.385Z,15.30
2019-01-11T06:50:10.277Z,17.40
2019-01-11T06:51:10.173Z,14.90
2019-01-11T06:52:10.065Z,15.30
2019-01-11T06:53:09.981Z,11.60
2019-01-11T06:54:09.856Z,12.50
2019-01-11T06:55:09.753Z,12.40
2019-01-11T06:56:09.648Z,15.10
2019-01-11T06:57:09.538Z,29.80
2019-01-11T06:58:09.453Z,22.20
2019-01-11T06:59:09.330Z,15.90
2019-01-11T07:00:09.227Z,15.00
2019-01-11T07:01:09.122Z,13.60
2019-01-11T07:02:09.011Z,14.80
2019-01-11T07:03:08.925Z,15.90
2019-01-11T07:04:08.806Z,14.50
2019-01-11T07:05:08.696Z,11.50
2019-01-11T07:06:08.594Z,11.70
2019-01-11T07:07:08.486Z,14.80
2019-01-11T07:08:08.397Z,14.30
2019-01-11T07:09:08.280Z,14.10
2019-01-11T07:10:08.170Z,17.20
2019-01-11T07:11:08.063Z,16.70
2019-01-11T07:12:07.959Z,14.00
2019-01-11T07:13:07.874Z,14.60
2019-01-11T07:14:07.751Z,14.40
2019-01-11T07:15:07.643Z,12.30
2019-01-11T07:16:07.544Z,13.20
2019-01-11T07:17:07.432Z,14.60
2019-01-11T07:18:07.346Z,13.70
2019-01-11T07:19:07.221Z,13.50
2019-01-11T07:20:07.116Z,12.10
2019-01-11T07:21:07.022Z,13.10
2019-01-11T07:22:06.911Z,12.40
2019-01-11T07:23:06.819Z,12.20
2019-01-11T07:24:06.695Z,13.10
2019-01-11T07:25:06.591Z,13.40
2019-01-11T07:26:06.499Z,11.90
2019-01-11T07:27:06.378Z,12.00
2019-01-11T07:28:06.280Z,13.00
2019-01-11T07:29:06.188Z,12.90
2019-01-11T07:30:06.065Z,10.20
2019-01-11T07:31:05.964Z,12.60
2019-01-11T07:32:05.860Z,12.80
2019-01-11T07:33:05.770Z,10.30
2019-01-11T07:34:05.905Z,10.10
2019-01-11T07:35:05.541Z,12.40
2019-01-11T07:36:05.434Z,9.90
2019-01-11T07:37:05.335Z,12.30
2019-01-11T07:38:05.223Z,12.80
2019-01-11T07:39:05.139Z,9.70
2019-01-11T07:40:05.013Z,11.60
2019-01-11T07:41:04.907Z,11.80
2019-01-11T07:42:04.804Z,10.40
2019-01-11T07:43:04.701Z,13.20
2019-01-11T07:44:04.609Z,13.60
2019-01-11T07:45:04.488Z,12.90
2019-01-11T07:46:04.382Z,11.30
2019-01-11T07:47:04.278Z,13.60
2019-01-11T07:48:04.291Z,12.30
2019-01-11T07:49:04.087Z,12.90
2019-01-11T07:50:03.961Z,11.60
2019-01-11T07:51:03.854Z,12.60
2019-01-11T07:52:03.754Z,12.30
2019-01-11T07:53:03.647Z,11.10
2019-01-11T07:54:03.559Z,10.40
2019-01-11T07:55:03.698Z,12.00
2019-01-11T07:56:03.331Z,12.00
2019-01-11T07:57:03.228Z,11.30
2019-01-11T07:58:03.121Z,11.10
2019-01-11T07:59:03.035Z,12.40
2019-01-11T08:00:02.913Z,14.30
2019-01-11T08:01:02.809Z,12.50
2019-01-11T08:02:02.742Z,12.60
2019-01-11T08:03:02.597Z,12.40
2019-01-11T08:04:02.508Z,12.90
2019-01-11T08:05:02.383Z,13.50
2019-01-11T08:06:02.281Z,12.10
2019-01-11T08:07:02.178Z,13.70
2019-01-11T08:08:02.068Z,12.60
2019-01-11T08:09:01.979Z,14.50
2019-01-11T08:10:01.862Z,13.30
2019-01-11T08:11:01.752Z,13.30
2019-01-11T08:12:01.655Z,12.30
2019-01-11T08:13:01.546Z,11.90
2019-01-11T08:14:01.486Z,13.70
2019-01-11T08:15:01.335Z,11.50
2019-01-11T08:16:01.229Z,12.60
2019-01-11T08:17:01.124Z,12.80
2019-01-11T08:18:01.021Z,13.50
2019-01-11T08:19:00.933Z,11.70
2019-01-11T08:20:00.830Z,11.20
2019-01-11T08:21:00.711Z,13.00
2019-01-11T08:22:00.604Z,11.50
2019-01-11T08:23:00.499Z,10.60
2019-01-11T08:24:00.406Z,11.90
2019-01-11T08:25:00.296Z,11.40
2019-01-11T08:26:00.183Z,11.50
2019-01-11T08:27:00.075Z,11.40
2019-01-11T08:27:59.976Z,11.50
2019-01-11T08:28:59.885Z,11.50
2019-01-11T08:29:59.763Z,12.50
2019-01-11T08:30:59.964Z,12.40
2019-01-11T08:31:59.554Z,13.00
2019-01-11T08:32:59.450Z,10.50
2019-01-11T08:33:59.361Z,11.70
2019-01-11T08:34:59.239Z,11.90
2019-01-11T08:35:59.131Z,12.20
2019-01-11T08:36:59.029Z,12.20
2019-01-11T08:37:59.026Z,13.10
2019-01-11T08:38:58.838Z,17.40
2019-01-11T08:39:58.713Z,15.20
2019-01-11T08:40:58.613Z,16.50
2019-01-11T08:41:58.504Z,14.30
2019-01-11T08:42:58.417Z,15.20
2019-01-11T08:43:58.309Z,17.90
2019-01-11T08:44:58.297Z,16.40
2019-01-11T08:45:58.086Z,15.50
2019-01-11T08:46:57.982Z,14.50
2019-01-11T08:47:57.876Z,12.60
2019-01-11T08:48:57.786Z,19.40
2019-01-11T08:49:57.666Z,18.20
2019-01-11T08:51:02.616Z,16.90
2019-01-11T08:51:57.456Z,15.40
2019-01-11T08:52:57.674Z,16.70
2019-01-11T08:53:57.265Z,16.40
2019-01-11T08:54:57.147Z,16.60
2019-01-11T08:55:57.036Z,16.60
2019-01-11T08:56:56.930Z,17.60
2019-01-11T08:57:56.826Z,21.80
2019-01-11T08:58:56.843Z,22.20
2019-01-11T08:59:56.620Z,29.00
2019-01-11T09:00:56.515Z,13.30
2019-01-11T09:01:56.411Z,13.70
2019-01-11T09:02:56.304Z,15.90
2019-01-11T09:03:56.215Z,18.50
2019-01-11T09:04:56.193Z,14.80
2019-01-11T09:05:55.990Z,17.40
2019-01-11T09:06:55.888Z,16.40
2019-01-11T09:07:55.779Z,18.60
2019-01-11T09:08:55.688Z,15.10
2019-01-11T09:09:55.570Z,16.10
2019-01-11T09:10:55.463Z,15.80
2019-01-11T09:11:55.360Z,17.70
2019-01-11T09:12:55.253Z,16.90
2019-01-11T09:13:55.151Z,16.00
2019-01-11T09:14:55.059Z,15.60
2019-01-11T09:15:54.943Z,16.60
2019-01-11T09:16:54.832Z,15.10
2019-01-11T09:17:54.728Z,15.20
2019-01-11T09:18:54.623Z,15.60
2019-01-11T09:19:54.534Z,14.20
2019-01-11T09:20:54.413Z,13.00
2019-01-11T09:21:54.309Z,13.80
2019-01-11T09:22:54.208Z,15.10
2019-01-11T09:23:54.101Z,14.40
2019-01-11T09:24:54.012Z,14.70
2019-01-11T09:25:53.889Z,16.80
2019-01-11T09:26:53.782Z,15.60
2019-01-11T09:27:53.678Z,16.50
2019-01-11T09:28:53.577Z,15.10
2019-01-11T09:29:53.484Z,18.30
2019-01-11T09:30:53.365Z,18.20
2019-01-11T09:31:53.258Z,15.60
2019-01-11T09:32:53.164Z,16.10
2019-01-11T09:33:53.048Z,16.10
2019-01-11T09:34:52.962Z,16.00
2019-01-11T09:35:52.841Z,16.90
2019-01-11T09:36:52.735Z,15.70
2019-01-11T09:37:52.629Z,14.80
2019-01-11T09:38:52.528Z,13.10
2019-01-11T09:39:52.435Z,15.00
2019-01-11T09:40:52.316Z,17.00
2019-01-11T09:41:52.209Z,16.00
2019-01-11T09:42:52.103Z,13.80
2019-01-11T09:43:52.004Z,14.70
2019-01-11T09:44:51.913Z,14.30
2019-01-11T09:45:51.788Z,14.30
2019-01-11T09:46:51.685Z,13.90
2019-01-11T09:47:51.582Z,14.90
2019-01-11T09:48:51.482Z,12.80
2019-01-11T09:49:51.388Z,12.70
2019-01-11T09:50:51.267Z,15.50
2019-01-11T09:51:51.161Z,16.70
2019-01-11T09:52:51.056Z,15.50
2019-01-11T09:53:50.955Z,13.20
2019-01-11T09:54:50.865Z,14.60
2019-01-11T09:55:50.742Z,16.20
2019-01-11T09:56:50.642Z,14.10
2019-01-11T09:57:50.535Z,14.40
2019-01-11T09:58:50.433Z,14.60
2019-01-11T09:59:50.340Z,13.10
2019-01-11T10:00:50.220Z,13.30
2019-01-11T10:01:50.114Z,14.30
2019-01-11T10:02:50.012Z,14.40
2019-01-11T10:03:49.908Z,13.00
2019-01-11T10:04:49.820Z,13.30
2019-01-11T10:05:49.700Z,13.30
2019-01-11T10:06:49.628Z,12.50
2019-01-11T10:07:49.490Z,13.00
2019-01-11T10:08:49.387Z,13.30
2019-01-11T10:09:49.297Z,13.80
2019-01-11T10:10:49.177Z,12.50
2019-01-11T10:11:49.070Z,12.40
2019-01-11T10:12:48.966Z,10.80
2019-01-11T10:13:48.861Z,13.20
2019-01-11T10:14:48.778Z,12.10
2019-01-11T10:15:48.654Z,12.70
2019-01-11T10:16:48.548Z,11.50
2019-01-11T10:17:48.449Z,11.30
2019-01-11T10:18:48.344Z,11.10
2019-01-11T10:19:48.254Z,11.10
2019-01-11T10:20:48.133Z,9.90
2019-01-11T10:21:48.027Z,10.40
2019-01-11T10:22:47.922Z,10.90
2019-01-11T10:23:47.822Z,10.10
2019-01-11T10:24:47.739Z,10.90
2019-01-11T10:25:47.608Z,9.80
2019-01-11T10:26:47.508Z,12.00
2019-01-11T10:27:47.400Z,10.70
2019-01-11T10:28:47.297Z,11.60
2019-01-11T10:29:47.211Z,10.20
2019-01-11T10:30:47.088Z,9.90
2019-01-11T10:31:46.984Z,9.80
2019-01-11T10:32:46.880Z,11.40
2019-01-11T10:33:46.782Z,11.00
2019-01-11T10:34:46.692Z,10.70
2019-01-11T10:35:46.672Z,9.60
2019-01-11T10:36:46.466Z,9.90
2019-01-11T10:37:46.362Z,9.70
2019-01-11T10:38:46.253Z,9.90
2019-01-11T10:39:46.168Z,10.30
2019-01-11T10:40:46.051Z,9.40
2019-01-11T10:41:45.987Z,9.50
2019-01-11T10:42:45.943Z,9.90
2019-01-11T10:43:45.734Z,8.50
2019-01-11T10:44:45.651Z,9.00
2019-01-11T10:45:45.522Z,9.40
2019-01-11T10:46:48.969Z,8.80
2019-01-11T10:47:45.320Z,8.80
2019-01-11T10:48:45.210Z,13.20
2019-01-11T10:49:45.244Z,10.00
2019-01-11T10:50:45.001Z,9.30
2019-01-11T10:51:44.897Z,9.00
2019-01-11T10:52:44.795Z,9.30
2019-01-11T10:53:44.691Z,8.90
2019-01-11T10:54:44.603Z,7.50
2019-01-11T10:55:44.483Z,6.90
2019-01-11T10:56:44.479Z,7.20
2019-01-11T10:57:44.269Z,7.30
2019-01-11T10:58:44.174Z,7.10
2019-01-11T10:59:44.064Z,6.70
2019-01-11T11:00:43.977Z,6.70
2019-01-11T11:01:43.854Z,7.10
2019-01-11T11:02:43.752Z,6.70
2019-01-11T11:03:43.759Z,7.00
2019-01-11T11:04:43.547Z,6.50
2019-01-11T11:05:43.452Z,6.80
2019-01-11T11:06:43.333Z,6.50
2019-01-11T11:07:43.244Z,6.40
2019-01-11T11:08:43.140Z,6.40
2019-01-11T11:09:43.032Z,6.20
2019-01-11T11:10:43.035Z,6.10
2019-01-11T11:11:42.812Z,6.60
2019-01-11T11:12:42.711Z,6.60
2019-01-11T11:13:42.603Z,6.20
2019-01-11T11:14:42.501Z,6.60
2019-01-11T11:15:42.414Z,6.80
2019-01-11T11:16:42.296Z,6.70
2019-01-11T11:17:42.315Z,6.50
2019-01-11T11:18:42.086Z,6.30
2019-01-11T11:19:41.982Z,7.00
2019-01-11T11:20:41.898Z,6.80
2019-01-11T11:21:41.770Z,7.80
2019-01-11T11:22:41.670Z,7.40
2019-01-11T11:23:41.561Z,7.20
2019-01-11T11:24:41.563Z,6.50
2019-01-11T11:25:41.378Z,7.20
2019-01-11T11:26:42.153Z,6.90
2019-01-11T11:27:41.144Z,7.30
2019-01-11T11:28:41.040Z,7.40
2019-01-11T11:29:40.938Z,8.40
2019-01-11T11:30:40.852Z,7.50
2019-01-11T11:31:40.835Z,7.80
2019-01-11T11:32:40.625Z,7.60
2019-01-11T11:33:40.519Z,7.90
2019-01-11T11:34:40.420Z,7.80
2019-01-11T11:35:40.326Z,8.30
2019-01-11T11:36:40.209Z,8.30
2019-01-11T11:37:40.101Z,8.80
2019-01-11T11:38:40.100Z,8.20
2019-01-11T11:39:39.896Z,8.50
2019-01-11T11:40:39.806Z,8.50
2019-01-11T11:41:39.685Z,8.20
2019-01-11T11:42:39.582Z,8.20
2019-01-11T11:43:39.476Z,8.40
2019-01-11T11:44:39.376Z,8.60
2019-01-11T11:45:39.392Z,8.70
2019-01-11T11:46:39.166Z,8.30
2019-01-11T11:47:39.063Z,8.40
2019-01-11T11:48:38.955Z,8.80
2019-01-11T11:49:38.851Z,7.90
2019-01-11T11:50:38.768Z,9.10
2019-01-11T11:51:41.376Z,8.20
2019-01-11T11:52:38.647Z,8.10
2019-01-11T11:53:38.437Z,8.40
2019-01-11T11:54:38.336Z,8.80
2019-01-11T11:55:38.249Z,9.20
2019-01-11T11:56:38.121Z,8.50
2019-01-11T11:57:38.016Z,10.00
2019-01-11T11:58:38.039Z,9.10
2019-01-11T11:59:37.809Z,8.60
2019-01-11T12:00:37.727Z,9.30
2019-01-11T12:01:37.602Z,9.40
2019-01-11T12:02:37.499Z,10.30
2019-01-11T12:03:37.396Z,10.70
2019-01-11T12:04:37.289Z,9.40
2019-01-11T12:05:37.208Z,10.30
2019-01-11T12:06:37.250Z,10.50
2019-01-11T12:07:36.983Z,10.90
2019-01-11T12:08:36.875Z,9.50
2019-01-11T12:09:36.774Z,9.80
2019-01-11T12:10:36.678Z,9.80
2019-01-11T12:11:36.563Z,9.90
2019-01-11T12:12:36.459Z,9.80
2019-01-11T12:13:36.370Z,9.40
2019-01-11T12:14:36.247Z,9.40
2019-01-11T12:15:36.160Z,9.60
2019-01-11T12:16:36.044Z,10.80
2019-01-11T12:17:36.146Z,12.50
2019-01-11T12:18:35.834Z,10.80
2019-01-11T12:19:35.731Z,10.40
2019-01-11T12:20:35.641Z,10.00
2019-01-11T12:21:35.519Z,10.50
2019-01-11T12:22:35.417Z,9.90
2019-01-11T12:23:35.310Z,10.60
2019-01-11T12:24:35.206Z,10.30
2019-01-11T12:25:35.122Z,10.80
2019-01-11T12:26:35.002Z,9.90
2019-01-11T12:27:34.898Z,10.00
2019-01-11T12:28:34.794Z,10.30
2019-01-11T12:29:34.690Z,10.60
2019-01-11T12:30:34.600Z,10.80
2019-01-11T12:31:34.483Z,10.80
2019-01-11T12:32:34.375Z,10.70
2019-01-11T12:33:34.268Z,11.90
2019-01-11T12:34:34.164Z,11.00
2019-01-11T12:35:34.079Z,10.60
2019-01-11T12:36:33.962Z,10.80
2019-01-11T12:37:33.851Z,9.80
2019-01-11T12:38:33.750Z,11.00
2019-01-11T12:39:33.646Z,11.10
2019-01-11T12:40:33.559Z,11.20
2019-01-11T12:41:33.434Z,10.20
2019-01-11T12:42:33.331Z,9.60
2019-01-11T12:43:33.235Z,10.90
2019-01-11T12:44:33.123Z,11.40
2019-01-11T12:45:33.019Z,10.30
2019-01-11T12:46:32.929Z,11.00
2019-01-11T12:47:32.814Z,11.00
2019-01-11T12:48:32.706Z,11.70
2019-01-11T12:49:32.603Z,10.80
2019-01-11T12:50:32.504Z,11.20
2019-01-11T12:51:32.409Z,11.20
2019-01-11T12:52:32.294Z,11.40
2019-01-11T12:53:32.186Z,11.50
2019-01-11T12:54:32.081Z,12.50
2019-01-11T12:55:31.980Z,13.50
2019-01-11T12:56:31.892Z,13.70
2019-01-11T12:57:31.767Z,11.20
2019-01-11T12:58:31.675Z,10.80
2019-01-11T12:59:31.561Z,10.60
2019-01-11T13:00:31.458Z,11.10
2019-01-11T13:01:31.367Z,12.70
2019-01-11T13:02:31.250Z,12.20
2019-01-11T13:03:31.143Z,12.10
2019-01-11T13:04:31.042Z,10.50
2019-01-11T13:05:30.941Z,11.00
2019-01-11T13:06:30.859Z,11.30